sensor_id;sensor_type;location;lat;lon;timestamp;pressure;altitude;pressure_sealevel;temperature;humidity
50011;BME280;35899;50.352;19.390;2023-03-14T00:01:24;96325.45;;;5.42;79.26
50011;BME280;35899;50.352;19.390;2023-03-14T00:04:34;96307.48;;;5.37;79.78
50011;BME280;35899;50.352;19.390;2023-03-14T00:07:48;96298.67;;;5.36;79.90
50011;BME280;35899;50.352;19.390;2023-03-14T00:11:09;96293.94;;;5.35;79.97
50011;BME280;35899;50.352;19.390;2023-03-14T00:14:31;96301.63;;;5.33;80.00
50011;BME280;35899;50.352;19.390;2023-03-14T00:17:28;96295.71;;;5.27;79.33
50011;BME280;35899;50.352;19.390;2023-03-14T00:20:39;96288.37;;;5.15;79.68
50011;BME280;35899;50.352;19.390;2023-03-14T00:24:09;96281.21;;;5.07;79.86
50011;BME280;35899;50.352;19.390;2023-03-14T00:27:20;96271.56;;;5.01;80.03
50011;BME280;35899;50.352;19.390;2023-03-14T00:30:33;96264.40;;;4.96;80.29
50011;BME280;35899;50.352;19.390;2023-03-14T00:33:35;96259.15;;;4.91;80.31
50011;BME280;35899;50.352;19.390;2023-03-14T00:36:30;96245.39;;;4.84;80.37
50011;BME280;35899;50.352;19.390;2023-03-14T00:39:33;96233.69;;;4.78;80.25
50011;BME280;35899;50.352;19.390;2023-03-14T00:42:31;96222.52;;;4.72;80.29
50011;BME280;35899;50.352;19.390;2023-03-14T00:45:42;96206.03;;;4.67;80.55
50011;BME280;35899;50.352;19.390;2023-03-14T00:48:44;96178.75;;;4.63;80.95
50011;BME280;35899;50.352;19.390;2023-03-14T00:51:56;96177.71;;;4.54;80.69
50011;BME280;35899;50.352;19.390;2023-03-14T00:54:55;96193.02;;;4.50;81.00
50011;BME280;35899;50.352;19.390;2023-03-14T00:58:13;96181.34;;;4.51;81.47
50011;BME280;35899;50.352;19.390;2023-03-14T01:01:25;96176.90;;;4.51;81.61
50011;BME280;35899;50.352;19.390;2023-03-14T01:04:48;96159.73;;;4.51;82.04
50011;BME280;35899;50.352;19.390;2023-03-14T01:07:33;96149.79;;;4.52;82.18
50011;BME280;35899;50.352;19.390;2023-03-14T01:10:20;96147.77;;;4.51;81.83
50011;BME280;35899;50.352;19.390;2023-03-14T01:13:41;96148.70;;;4.50;81.94
50011;BME280;35899;50.352;19.390;2023-03-14T01:16:39;96133.68;;;4.47;81.95
50011;BME280;35899;50.352;19.390;2023-03-14T01:19:54;96125.11;;;4.43;81.86
50011;BME280;35899;50.352;19.390;2023-03-14T01:23:43;96121.98;;;4.39;82.22
50011;BME280;35899;50.352;19.390;2023-03-14T01:26:52;96121.40;;;4.35;82.32
50011;BME280;35899;50.352;19.390;2023-03-14T01:30:25;96118.24;;;4.24;82.19
50011;BME280;35899;50.352;19.390;2023-03-14T01:34:00;96122.13;;;4.16;82.29
50011;BME280;35899;50.352;19.390;2023-03-14T01:37:16;96124.06;;;4.08;82.11
50011;BME280;35899;50.352;19.390;2023-03-14T01:40:32;96113.47;;;4.03;82.62
50011;BME280;35899;50.352;19.390;2023-03-14T01:43:59;96108.44;;;4.04;83.06
50011;BME280;35899;50.352;19.390;2023-03-14T01:47:24;96102.54;;;4.07;83.42
50011;BME280;35899;50.352;19.390;2023-03-14T01:50:31;96093.14;;;4.09;83.31
50011;BME280;35899;50.352;19.390;2023-03-14T01:53:00;96077.27;;;4.13;83.60
50011;BME280;35899;50.352;19.390;2023-03-14T01:55:53;96056.42;;;4.18;83.82
50011;BME280;35899;50.352;19.390;2023-03-14T01:59:04;96055.80;;;4.21;83.98
50011;BME280;35899;50.352;19.390;2023-03-14T02:02:35;96065.11;;;4.25;83.77
50011;BME280;35899;50.352;19.390;2023-03-14T02:06:04;96063.02;;;4.28;83.55
50011;BME280;35899;50.352;19.390;2023-03-14T06:21:11;95952.73;;;4.83;85.51
50011;BME280;35899;50.352;19.390;2023-03-14T06:23:38;95958.61;;;4.92;85.67
50011;BME280;35899;50.352;19.390;2023-03-14T06:26:05;95963.12;;;5.00;85.67
50011;BME280;35899;50.352;19.390;2023-03-14T06:28:32;95957.08;;;5.09;85.75
50011;BME280;35899;50.352;19.390;2023-03-14T06:31:00;95961.71;;;5.18;85.89
50011;BME280;35899;50.352;19.390;2023-03-14T06:33:30;95952.08;;;5.18;85.28
50011;BME280;35899;50.352;19.390;2023-03-14T06:36:00;95945.31;;;5.12;84.72
50011;BME280;35899;50.352;19.390;2023-03-14T06:38:27;95938.42;;;5.06;84.56
50011;BME280;35899;50.352;19.390;2023-03-14T06:41:03;95938.51;;;5.01;84.47
50011;BME280;35899;50.352;19.390;2023-03-14T06:43:35;95934.05;;;4.99;84.45
50011;BME280;35899;50.352;19.390;2023-03-14T06:46:04;95931.30;;;4.95;84.77
50011;BME280;35899;50.352;19.390;2023-03-14T06:48:34;95929.05;;;4.88;84.58
50011;BME280;35899;50.352;19.390;2023-03-14T06:51:01;95933.16;;;4.79;84.60
50011;BME280;35899;50.352;19.390;2023-03-14T06:53:31;95930.84;;;4.74;84.53
50011;BME280;35899;50.352;19.390;2023-03-14T06:55:58;95931.90;;;4.72;84.65
50011;BME280;35899;50.352;19.390;2023-03-14T06:58:25;95932.83;;;4.73;84.58
50011;BME280;35899;50.352;19.390;2023-03-14T07:01:01;95923.55;;;4.76;84.90
50011;BME280;35899;50.352;19.390;2023-03-14T07:03:31;95917.42;;;4.80;84.78
50011;BME280;35899;50.352;19.390;2023-03-14T07:05:59;95911.17;;;4.86;84.96
50011;BME280;35899;50.352;19.390;2023-03-14T07:08:34;95912.21;;;4.99;85.23
50011;BME280;35899;50.352;19.390;2023-03-14T07:11:00;95907.41;;;5.15;85.52
50011;BME280;35899;50.352;19.390;2023-03-14T07:13:27;95907.55;;;5.30;85.54
50011;BME280;35899;50.352;19.390;2023-03-14T07:16:00;95905.64;;;5.47;85.69
50011;BME280;35899;50.352;19.390;2023-03-14T07:18:27;95905.34;;;5.65;85.92
50011;BME280;35899;50.352;19.390;2023-03-14T07:20:54;95904.30;;;5.86;86.12
50011;BME280;35899;50.352;19.390;2023-03-14T07:23:21;95909.22;;;6.08;86.27
50011;BME280;35899;50.352;19.390;2023-03-14T07:25:50;95920.34;;;6.31;86.86
50011;BME280;35899;50.352;19.390;2023-03-14T07:28:17;95919.27;;;6.52;86.80
50011;BME280;35899;50.352;19.390;2023-03-14T07:30:48;95907.63;;;6.69;86.74
50011;BME280;35899;50.352;19.390;2023-03-14T07:33:21;95915.73;;;6.88;86.57
50011;BME280;35899;50.352;19.390;2023-03-14T07:35:48;95926.09;;;7.08;86.25
50011;BME280;35899;50.352;19.390;2023-03-14T07:38:32;95932.23;;;7.28;85.98
50011;BME280;35899;50.352;19.390;2023-03-14T07:41:18;95923.58;;;7.50;86.20
50011;BME280;35899;50.352;19.390;2023-03-14T07:44:01;95923.73;;;7.71;86.22
50011;BME280;35899;50.352;19.390;2023-03-14T07:46:27;95926.55;;;7.92;86.42
50011;BME280;35899;50.352;19.390;2023-03-14T07:48:54;95931.61;;;8.11;86.48
50011;BME280;35899;50.352;19.390;2023-03-14T07:51:20;95932.34;;;8.32;86.08
50011;BME280;35899;50.352;19.390;2023-03-14T07:53:47;95936.38;;;8.53;86.07
50011;BME280;35899;50.352;19.390;2023-03-14T07:56:13;95939.83;;;8.81;85.87
50011;BME280;35899;50.352;19.390;2023-03-14T07:58:40;95949.92;;;9.13;86.16
50011;BME280;35899;50.352;19.390;2023-03-14T08:01:06;95945.52;;;9.41;85.94
50011;BME280;35899;50.352;19.390;2023-03-14T08:03:32;95942.39;;;9.62;85.54
50011;BME280;35899;50.352;19.390;2023-03-14T08:05:59;95932.41;;;9.81;84.83
50011;BME280;35899;50.352;19.390;2023-03-14T08:08:25;95929.90;;;9.98;84.04
50011;BME280;35899;50.352;19.390;2023-03-14T08:10:52;95930.08;;;10.13;82.52
50011;BME280;35899;50.352;19.390;2023-03-14T08:13:18;95936.73;;;10.30;81.99
50011;BME280;35899;50.352;19.390;2023-03-14T08:15:47;95935.11;;;10.48;81.47
50011;BME280;35899;50.352;19.390;2023-03-14T08:18:13;95935.46;;;10.65;80.70
50011;BME280;35899;50.352;19.390;2023-03-14T08:20:40;95941.34;;;10.84;80.01
50011;BME280;35899;50.352;19.390;2023-03-14T08:23:06;95942.59;;;11.05;77.61
50011;BME280;35899;50.352;19.390;2023-03-14T08:25:32;95938.44;;;11.30;77.90
50011;BME280;35899;50.352;19.390;2023-03-14T08:27:59;95932.29;;;11.57;76.39
50011;BME280;35899;50.352;19.390;2023-03-14T08:30:25;95923.68;;;11.78;75.72
50011;BME280;35899;50.352;19.390;2023-03-14T08:32:52;95923.86;;;12.01;75.89
50011;BME280;35899;50.352;19.390;2023-03-14T08:35:19;95926.38;;;12.21;74.44
50011;BME280;35899;50.352;19.390;2023-03-14T08:37:46;95928.28;;;12.37;73.66
50011;BME280;35899;50.352;19.390;2023-03-14T08:40:12;95923.79;;;12.50;72.31
50011;BME280;35899;50.352;19.390;2023-03-14T08:42:39;95923.48;;;12.60;72.08
50011;BME280;35899;50.352;19.390;2023-03-14T08:45:06;95926.92;;;12.67;70.48
50011;BME280;35899;50.352;19.390;2023-03-14T08:47:33;95923.45;;;12.69;70.56
50011;BME280;35899;50.352;19.390;2023-03-14T08:50:00;95929.49;;;12.69;69.27
50011;BME280;35899;50.352;19.390;2023-03-14T08:52:26;95924.16;;;12.68;67.07
50011;BME280;35899;50.352;19.390;2023-03-14T08:54:53;95939.92;;;12.67;67.17
50011;BME280;35899;50.352;19.390;2023-03-14T08:57:19;95930.67;;;12.67;66.38
50011;BME280;35899;50.352;19.390;2023-03-14T08:59:45;95932.61;;;12.70;65.77
50011;BME280;35899;50.352;19.390;2023-03-14T09:02:12;95944.57;;;12.74;64.76
50011;BME280;35899;50.352;19.390;2023-03-14T09:04:39;95951.38;;;12.81;65.12
50011;BME280;35899;50.352;19.390;2023-03-14T09:07:05;95949.19;;;12.95;65.21
50011;BME280;35899;50.352;19.390;2023-03-14T09:09:32;95948.14;;;13.07;65.71
50011;BME280;35899;50.352;19.390;2023-03-14T09:11:58;95941.88;;;13.17;64.65
50011;BME280;35899;50.352;19.390;2023-03-14T09:14:24;95937.13;;;13.16;63.45
50011;BME280;35899;50.352;19.390;2023-03-14T09:16:51;95944.12;;;13.12;63.67
50011;BME280;35899;50.352;19.390;2023-03-14T09:19:17;95952.09;;;13.06;62.42
50011;BME280;35899;50.352;19.390;2023-03-14T09:21:43;95956.71;;;12.94;62.47
50011;BME280;35899;50.352;19.390;2023-03-14T09:24:10;95949.33;;;12.89;61.76
50011;BME280;35899;50.352;19.390;2023-03-14T09:26:36;95962.41;;;12.95;62.50
50011;BME280;35899;50.352;19.390;2023-03-14T09:29:02;95972.56;;;13.08;62.16
50011;BME280;35899;50.352;19.390;2023-03-14T09:31:29;95974.19;;;13.20;62.24
50011;BME280;35899;50.352;19.390;2023-03-14T09:33:55;95966.06;;;13.30;62.19
50011;BME280;35899;50.352;19.390;2023-03-14T09:36:21;95968.94;;;13.26;61.88
50011;BME280;35899;50.352;19.390;2023-03-14T09:38:48;95974.34;;;13.21;61.34
50011;BME280;35899;50.352;19.390;2023-03-14T09:41:16;95973.26;;;13.13;61.12
50011;BME280;35899;50.352;19.390;2023-03-14T09:43:43;95980.02;;;13.02;61.35
50011;BME280;35899;50.352;19.390;2023-03-14T09:46:11;95985.05;;;12.97;62.09
50011;BME280;35899;50.352;19.390;2023-03-14T09:48:38;95974.59;;;13.05;61.87
50011;BME280;35899;50.352;19.390;2023-03-14T09:51:06;95971.64;;;13.30;61.90
50011;BME280;35899;50.352;19.390;2023-03-14T09:53:39;95976.59;;;13.56;61.99
50011;BME280;35899;50.352;19.390;2023-03-14T09:56:23;95961.81;;;13.83;61.66
50011;BME280;35899;50.352;19.390;2023-03-14T09:58:51;95959.27;;;14.37;60.76
50011;BME280;35899;50.352;19.390;2023-03-14T10:01:22;95967.07;;;14.73;60.37
50011;BME280;35899;50.352;19.390;2023-03-14T10:03:50;95979.80;;;14.97;60.23
50011;BME280;35899;50.352;19.390;2023-03-14T10:06:19;95968.95;;;15.03;58.99
50011;BME280;35899;50.352;19.390;2023-03-14T10:08:48;95973.38;;;15.04;58.47
50011;BME280;35899;50.352;19.390;2023-03-14T10:11:17;95974.36;;;14.91;58.50
50011;BME280;35899;50.352;19.390;2023-03-14T10:14:02;95976.25;;;14.72;58.05
50011;BME280;35899;50.352;19.390;2023-03-14T10:16:29;95976.88;;;14.46;58.14
50011;BME280;35899;50.352;19.390;2023-03-14T10:19:04;95978.48;;;14.40;57.90
50011;BME280;35899;50.352;19.390;2023-03-14T10:21:35;95976.16;;;14.57;57.89
50011;BME280;35899;50.352;19.390;2023-03-14T10:24:09;95989.92;;;14.70;58.34
50011;BME280;35899;50.352;19.390;2023-03-14T10:26:35;95986.13;;;14.81;58.29
50011;BME280;35899;50.352;19.390;2023-03-14T10:29:12;95985.11;;;14.87;57.84
50011;BME280;35899;50.352;19.390;2023-03-14T10:31:49;95980.91;;;14.98;56.83
50011;BME280;35899;50.352;19.390;2023-03-14T10:34:25;95994.03;;;14.97;56.18
50011;BME280;35899;50.352;19.390;2023-03-14T10:36:52;96005.48;;;14.87;56.31
50011;BME280;35899;50.352;19.390;2023-03-14T10:41:55;96003.73;;;14.66;57.09
50011;BME280;35899;50.352;19.390;2023-03-14T10:44:27;95991.87;;;14.44;56.93
50011;BME280;35899;50.352;19.390;2023-03-14T10:46:59;95995.75;;;14.24;57.47
50011;BME280;35899;50.352;19.390;2023-03-14T10:49:27;95999.60;;;14.03;58.05
50011;BME280;35899;50.352;19.390;2023-03-14T10:51:54;95991.77;;;13.80;58.31
50011;BME280;35899;50.352;19.390;2023-03-14T10:54:21;95993.00;;;13.61;59.01
50011;BME280;35899;50.352;19.390;2023-03-14T10:56:58;95990.48;;;13.41;59.38
50011;BME280;35899;50.352;19.390;2023-03-14T10:59:25;95993.45;;;13.20;59.54
50011;BME280;35899;50.352;19.390;2023-03-14T11:02:40;95990.64;;;13.01;59.90
50011;BME280;35899;50.352;19.390;2023-03-14T11:09:46;95990.05;;;12.50;61.43
50011;BME280;35899;50.352;19.390;2023-03-14T11:13:00;95987.39;;;12.40;61.94
50011;BME280;35899;50.352;19.390;2023-03-14T11:15:15;95985.85;;;12.32;62.28
50011;BME280;35899;50.352;19.390;2023-03-14T11:28:38;95988.92;;;11.97;63.56
50011;BME280;35899;50.352;19.390;2023-03-14T11:33:50;95987.70;;;11.87;64.15
50011;BME280;35899;50.352;19.390;2023-03-14T11:39:16;95988.88;;;11.78;64.30
50011;BME280;35899;50.352;19.390;2023-03-14T11:41:47;95985.41;;;11.76;64.63
50011;BME280;35899;50.352;19.390;2023-03-14T11:44:19;95983.19;;;11.76;64.81
50011;BME280;35899;50.352;19.390;2023-03-14T11:49:48;95980.91;;;11.74;65.00
50011;BME280;35899;50.352;19.390;2023-03-14T11:54:47;95969.09;;;11.71;65.01
50011;BME280;35899;50.352;19.390;2023-03-14T11:57:17;95971.81;;;11.70;65.30
50011;BME280;35899;50.352;19.390;2023-03-14T12:07:59;95978.36;;;11.55;65.75
50011;BME280;35899;50.352;19.390;2023-03-14T12:10:30;95979.73;;;11.56;66.16
50011;BME280;35899;50.352;19.390;2023-03-14T12:13:02;95980.84;;;11.59;66.49
50011;BME280;35899;50.352;19.390;2023-03-14T12:15:29;95979.48;;;11.60;66.71
50011;BME280;35899;50.352;19.390;2023-03-14T12:17:55;95980.48;;;11.62;66.97
50011;BME280;35899;50.352;19.390;2023-03-14T12:22:56;95964.28;;;11.69;67.04
50011;BME280;35899;50.352;19.390;2023-03-14T12:25:28;95961.35;;;11.77;66.82
50011;BME280;35899;50.352;19.390;2023-03-14T12:30:26;95952.91;;;12.02;66.27
50011;BME280;35899;50.352;19.390;2023-03-14T12:35:36;95944.63;;;12.14;66.35
50011;BME280;35899;50.352;19.390;2023-03-14T12:38:04;95952.92;;;12.09;65.79
50011;BME280;35899;50.352;19.390;2023-03-14T12:40:33;95947.80;;;12.07;66.09
50011;BME280;35899;50.352;19.390;2023-03-14T12:43:03;95939.63;;;12.09;65.91
50011;BME280;35899;50.352;19.390;2023-03-14T12:45:34;95941.27;;;12.07;65.73
50011;BME280;35899;50.352;19.390;2023-03-14T12:50:31;95953.84;;;11.86;65.81
50011;BME280;35899;50.352;19.390;2023-03-14T12:55:41;95952.42;;;11.67;65.86
50011;BME280;35899;50.352;19.390;2023-03-14T12:58:22;95952.32;;;11.55;66.19
50011;BME280;35899;50.352;19.390;2023-03-14T13:01:01;95945.80;;;11.46;66.46
50011;BME280;35899;50.352;19.390;2023-03-14T13:11:52;95946.77;;;11.37;67.49
50011;BME280;35899;50.352;19.390;2023-03-14T13:14:19;95951.14;;;11.33;67.72
50011;BME280;35899;50.352;19.390;2023-03-14T13:16:49;95946.73;;;11.29;67.87
50011;BME280;35899;50.352;19.390;2023-03-14T13:19:18;95942.98;;;11.25;68.03
50011;BME280;35899;50.352;19.390;2023-03-14T13:21:45;95947.04;;;11.24;68.16
50011;BME280;35899;50.352;19.390;2023-03-14T13:24:20;95950.84;;;11.26;68.34
50011;BME280;35899;50.352;19.390;2023-03-14T13:26:47;95951.52;;;11.26;68.35
50011;BME280;35899;50.352;19.390;2023-03-14T13:31:43;95952.38;;;11.23;68.58
50011;BME280;35899;50.352;19.390;2023-03-14T13:34:10;95959.04;;;11.18;68.79
50011;BME280;35899;50.352;19.390;2023-03-14T13:36:36;95959.65;;;11.16;68.95
50011;BME280;35899;50.352;19.390;2023-03-14T13:39:02;95960.10;;;11.13;69.15
50011;BME280;35899;50.352;19.390;2023-03-14T13:41:30;95958.36;;;11.08;69.37
50011;BME280;35899;50.352;19.390;2023-03-14T13:44:16;95962.25;;;11.03;69.81
50011;BME280;35899;50.352;19.390;2023-03-14T13:46:43;95963.79;;;10.96;70.00
50011;BME280;35899;50.352;19.390;2023-03-14T13:49:10;95972.60;;;10.89;70.27
50011;BME280;35899;50.352;19.390;2023-03-14T13:51:39;95982.02;;;10.83;70.42
50011;BME280;35899;50.352;19.390;2023-03-14T13:54:16;95986.51;;;10.78;70.99
50011;BME280;35899;50.352;19.390;2023-03-14T13:56:43;95991.86;;;10.72;71.42
50011;BME280;35899;50.352;19.390;2023-03-14T13:59:23;95990.26;;;10.65;71.57
50011;BME280;35899;50.352;19.390;2023-03-14T14:01:49;95986.20;;;10.59;72.27
50011;BME280;35899;50.352;19.390;2023-03-14T14:04:18;95986.89;;;10.55;72.34
50011;BME280;35899;50.352;19.390;2023-03-14T14:06:46;95989.29;;;10.52;72.93
50011;BME280;35899;50.352;19.390;2023-03-14T14:09:17;95989.21;;;10.52;73.16
50011;BME280;35899;50.352;19.390;2023-03-14T14:11:51;95995.42;;;10.50;73.35
50011;BME280;35899;50.352;19.390;2023-03-14T14:17:10;95990.56;;;10.45;74.06
50011;BME280;35899;50.352;19.390;2023-03-14T14:19:37;95990.20;;;10.44;74.29
50011;BME280;35899;50.352;19.390;2023-03-14T14:22:04;95993.42;;;10.41;74.58
50011;BME280;35899;50.352;19.390;2023-03-14T14:24:31;95990.46;;;10.37;74.80
50011;BME280;35899;50.352;19.390;2023-03-14T14:26:59;95997.48;;;10.34;75.26
50011;BME280;35899;50.352;19.390;2023-03-14T14:29:28;95993.71;;;10.33;75.40
50011;BME280;35899;50.352;19.390;2023-03-14T14:34:43;95981.79;;;10.29;76.19
50011;BME280;35899;50.352;19.390;2023-03-14T14:37:25;95980.02;;;10.28;76.60
50011;BME280;35899;50.352;19.390;2023-03-14T14:39:55;95984.27;;;10.25;76.66
50011;BME280;35899;50.352;19.390;2023-03-14T14:42:24;95981.05;;;10.24;76.87
50011;BME280;35899;50.352;19.390;2023-03-14T14:44:51;95982.61;;;10.23;77.29
50011;BME280;35899;50.352;19.390;2023-03-14T14:47:20;95980.69;;;10.23;77.33
50011;BME280;35899;50.352;19.390;2023-03-14T14:49:48;95973.34;;;10.23;77.87
50011;BME280;35899;50.352;19.390;2023-03-14T14:52:15;95974.20;;;10.25;78.09
50011;BME280;35899;50.352;19.390;2023-03-14T14:54:44;95973.40;;;10.28;77.98
50011;BME280;35899;50.352;19.390;2023-03-14T14:57:28;95973.02;;;10.30;78.16
50011;BME280;35899;50.352;19.390;2023-03-14T14:59:55;95979.14;;;10.33;78.08
50011;BME280;35899;50.352;19.390;2023-03-14T15:02:29;95976.08;;;10.34;78.40
50011;BME280;35899;50.352;19.390;2023-03-14T15:04:57;95974.76;;;10.34;78.38
50011;BME280;35899;50.352;19.390;2023-03-14T15:07:23;95964.31;;;10.33;78.31
50011;BME280;35899;50.352;19.390;2023-03-14T15:09:49;95958.28;;;10.32;78.64
50011;BME280;35899;50.352;19.390;2023-03-14T15:12:16;95948.48;;;10.32;78.81
50011;BME280;35899;50.352;19.390;2023-03-14T15:14:43;95941.05;;;10.32;78.76
50011;BME280;35899;50.352;19.390;2023-03-14T15:17:10;95937.52;;;10.33;78.88
50011;BME280;35899;50.352;19.390;2023-03-14T15:19:37;95939.81;;;10.34;78.91
50011;BME280;35899;50.352;19.390;2023-03-14T15:22:04;95943.10;;;10.34;78.95
50011;BME280;35899;50.352;19.390;2023-03-14T15:24:31;95944.67;;;10.34;78.99
50011;BME280;35899;50.352;19.390;2023-03-14T15:26:57;95960.27;;;10.31;79.22
50011;BME280;35899;50.352;19.390;2023-03-14T15:29:24;95962.19;;;10.28;79.26
50011;BME280;35899;50.352;19.390;2023-03-14T15:31:51;95965.89;;;10.24;79.42
50011;BME280;35899;50.352;19.390;2023-03-14T15:34:17;95966.80;;;10.19;79.78
50011;BME280;35899;50.352;19.390;2023-03-14T15:36:43;95966.70;;;10.15;79.70
50011;BME280;35899;50.352;19.390;2023-03-14T15:39:10;95962.29;;;10.11;79.89
50011;BME280;35899;50.352;19.390;2023-03-14T15:41:36;95959.58;;;10.09;80.15
50011;BME280;35899;50.352;19.390;2023-03-14T15:44:03;95963.22;;;10.05;80.19
50011;BME280;35899;50.352;19.390;2023-03-14T15:46:29;95963.36;;;10.02;80.28
50011;BME280;35899;50.352;19.390;2023-03-14T15:48:57;95965.31;;;9.98;80.62
50011;BME280;35899;50.352;19.390;2023-03-14T15:51:23;95954.92;;;9.95;80.70
50011;BME280;35899;50.352;19.390;2023-03-14T15:53:50;95953.48;;;9.92;80.87
50011;BME280;35899;50.352;19.390;2023-03-14T15:56:17;95958.90;;;9.89;81.10
50011;BME280;35899;50.352;19.390;2023-03-14T15:58:44;95959.52;;;9.87;81.31
50011;BME280;35899;50.352;19.390;2023-03-14T16:01:10;95965.12;;;9.84;81.30
50011;BME280;35899;50.352;19.390;2023-03-14T16:03:37;95968.34;;;9.81;81.47
50011;BME280;35899;50.352;19.390;2023-03-14T16:06:04;95970.31;;;9.81;81.38
50011;BME280;35899;50.352;19.390;2023-03-14T16:08:30;95963.83;;;9.80;81.51
50011;BME280;35899;50.352;19.390;2023-03-14T16:10:57;95957.08;;;9.80;82.26
50011;BME280;35899;50.352;19.390;2023-03-14T16:13:24;95957.41;;;9.76;82.62
50011;BME280;35899;50.352;19.390;2023-03-14T16:15:55;95960.00;;;9.71;82.71
50011;BME280;35899;50.352;19.390;2023-03-14T16:18:22;95961.73;;;9.66;82.84
50011;BME280;35899;50.352;19.390;2023-03-14T16:20:52;95957.18;;;9.59;83.18
50011;BME280;35899;50.352;19.390;2023-03-14T16:23:18;95954.57;;;9.54;83.66
50011;BME280;35899;50.352;19.390;2023-03-14T16:25:45;95948.05;;;9.50;83.60
50011;BME280;35899;50.352;19.390;2023-03-14T16:28:11;95941.86;;;9.45;83.91
50011;BME280;35899;50.352;19.390;2023-03-14T16:30:38;95940.75;;;9.40;83.94
50011;BME280;35899;50.352;19.390;2023-03-14T16:33:04;95945.42;;;9.34;84.32
50011;BME280;35899;50.352;19.390;2023-03-14T16:35:37;95942.27;;;9.29;84.89
50011;BME280;35899;50.352;19.390;2023-03-14T16:38:03;95944.44;;;9.25;85.11
50011;BME280;35899;50.352;19.390;2023-03-14T16:40:30;95952.21;;;9.21;85.31
50011;BME280;35899;50.352;19.390;2023-03-14T16:42:57;95959.66;;;9.19;85.72
50011;BME280;35899;50.352;19.390;2023-03-14T16:45:43;95962.30;;;9.15;85.68
50011;BME280;35899;50.352;19.390;2023-03-14T16:48:10;95966.52;;;9.10;86.04
50011;BME280;35899;50.352;19.390;2023-03-14T16:50:38;95972.30;;;9.06;85.97
50011;BME280;35899;50.352;19.390;2023-03-14T16:53:05;95979.93;;;9.02;86.39
50011;BME280;35899;50.352;19.390;2023-03-14T16:55:40;95991.29;;;8.97;86.31
50011;BME280;35899;50.352;19.390;2023-03-14T16:58:07;95992.00;;;8.91;86.74
50011;BME280;35899;50.352;19.390;2023-03-14T17:00:35;95994.30;;;8.87;86.99
50011;BME280;35899;50.352;19.390;2023-03-14T17:03:02;95990.60;;;8.82;86.97
50011;BME280;35899;50.352;19.390;2023-03-14T17:05:29;95989.30;;;8.77;87.19
50011;BME280;35899;50.352;19.390;2023-03-14T17:07:55;95985.72;;;8.75;87.35
50011;BME280;35899;50.352;19.390;2023-03-14T17:10:22;95987.52;;;8.73;87.52
50011;BME280;35899;50.352;19.390;2023-03-14T17:12:48;95991.40;;;8.70;87.75
50011;BME280;35899;50.352;19.390;2023-03-14T17:15:15;95985.48;;;8.65;87.65
50011;BME280;35899;50.352;19.390;2023-03-14T17:17:41;95985.02;;;8.59;87.97
50011;BME280;35899;50.352;19.390;2023-03-14T17:20:08;95979.49;;;8.53;88.42
50011;BME280;35899;50.352;19.390;2023-03-14T17:22:35;95979.02;;;8.47;88.24
50011;BME280;35899;50.352;19.390;2023-03-14T17:25:02;95987.17;;;8.41;88.46
50011;BME280;35899;50.352;19.390;2023-03-14T17:27:29;95990.64;;;8.35;89.01
50011;BME280;35899;50.352;19.390;2023-03-14T17:29:55;95998.37;;;8.30;88.92
50011;BME280;35899;50.352;19.390;2023-03-14T17:32:22;95999.81;;;8.23;88.86
50011;BME280;35899;50.352;19.390;2023-03-14T17:34:48;96002.90;;;8.17;89.11
50011;BME280;35899;50.352;19.390;2023-03-14T17:37:15;96002.70;;;8.14;89.30
50011;BME280;35899;50.352;19.390;2023-03-14T17:39:42;96001.25;;;8.11;89.37
50011;BME280;35899;50.352;19.390;2023-03-14T17:42:09;95998.40;;;8.10;89.75
50011;BME280;35899;50.352;19.390;2023-03-14T17:44:36;95998.95;;;8.10;89.94
50011;BME280;35899;50.352;19.390;2023-03-14T17:47:03;96005.77;;;8.09;89.86
50011;BME280;35899;50.352;19.390;2023-03-14T17:49:30;96003.28;;;8.06;89.89
50011;BME280;35899;50.352;19.390;2023-03-14T17:51:57;95996.02;;;8.02;90.25
50011;BME280;35899;50.352;19.390;2023-03-14T17:54:23;95996.88;;;7.96;89.99
50011;BME280;35899;50.352;19.390;2023-03-14T17:56:50;95993.19;;;7.90;90.13
50011;BME280;35899;50.352;19.390;2023-03-14T17:59:16;96000.65;;;7.83;90.20
50011;BME280;35899;50.352;19.390;2023-03-14T18:01:43;96004.56;;;7.78;90.68
50011;BME280;35899;50.352;19.390;2023-03-14T18:04:11;96006.61;;;7.73;90.51
50011;BME280;35899;50.352;19.390;2023-03-14T18:06:37;96007.29;;;7.65;90.61
50011;BME280;35899;50.352;19.390;2023-03-14T18:09:04;96009.70;;;7.57;90.66
50011;BME280;35899;50.352;19.390;2023-03-14T18:11:30;96014.33;;;7.51;91.03
50011;BME280;35899;50.352;19.390;2023-03-14T18:13:57;96011.37;;;7.46;91.29
50011;BME280;35899;50.352;19.390;2023-03-14T18:16:24;96007.64;;;7.39;91.19
50011;BME280;35899;50.352;19.390;2023-03-14T18:18:50;96004.59;;;7.31;91.12
50011;BME280;35899;50.352;19.390;2023-03-14T18:21:17;96010.52;;;7.24;91.30
50011;BME280;35899;50.352;19.390;2023-03-14T18:23:44;96004.36;;;7.18;91.44
50011;BME280;35899;50.352;19.390;2023-03-14T18:26:10;96001.77;;;7.12;91.68
50011;BME280;35899;50.352;19.390;2023-03-14T18:28:37;96007.39;;;7.07;92.03
50011;BME280;35899;50.352;19.390;2023-03-14T18:31:10;96010.64;;;7.01;92.04
50011;BME280;35899;50.352;19.390;2023-03-14T18:33:37;96013.68;;;6.95;92.50
50011;BME280;35899;50.352;19.390;2023-03-14T18:36:05;96023.37;;;6.91;92.78
50011;BME280;35899;50.352;19.390;2023-03-14T18:38:32;96028.21;;;6.84;92.65
50011;BME280;35899;50.352;19.390;2023-03-14T18:41:03;96028.42;;;6.78;92.72
50011;BME280;35899;50.352;19.390;2023-03-14T18:43:30;96032.29;;;6.73;93.18
50011;BME280;35899;50.352;19.390;2023-03-14T18:45:56;96039.23;;;6.70;93.50
50011;BME280;35899;50.352;19.390;2023-03-14T18:48:23;96039.52;;;6.64;93.63
50011;BME280;35899;50.352;19.390;2023-03-14T18:50:50;96045.36;;;6.62;93.89